sensor_id;sensor_type;location;lat;lon;timestamp;pressure;altitude;pressure_sealevel;temperature;humidity
57894;BME280;43710;47.460;19.034;2023-05-12T04:09:22;100625.41;;;14.24;92.42
57894;BME280;43710;47.460;19.034;2023-05-12T04:12:25;100625.41;;;14.24;92.42
57894;BME280;43710;47.460;19.034;2023-05-12T04:15:28;100623.53;;;13.78;95.36
57894;BME280;43710;47.460;19.034;2023-05-12T04:18:30;100623.59;;;13.73;91.03
57894;BME280;43710;47.460;19.034;2023-05-12T04:21:34;100632.81;;;13.85;95.26
57894;BME280;43710;47.460;19.034;2023-05-12T04:24:36;100636.63;;;13.84;92.71
57894;BME280;43710;47.460;19.034;2023-05-12T04:27:39;100631.53;;;13.97;89.17
57894;BME280;43710;47.460;19.034;2023-05-12T04:30:42;100631.53;;;13.97;92.02
57894;BME280;43710;47.460;19.034;2023-05-12T04:33:44;100640.31;;;13.89;89.42
57894;BME280;43710;47.460;19.034;2023-05-12T04:36:49;100635.06;;;13.97;89.23
57894;BME280;43710;47.460;19.034;2023-05-12T04:39:53;100643.34;;;14.01;89.16
57894;BME280;43710;47.460;19.034;2023-05-12T04:42:55;100646.81;;;13.88;91.31
57894;BME280;43710;47.460;19.034;2023-05-12T04:45:59;100636.31;;;13.86;91.67
57894;BME280;43710;47.460;19.034;2023-05-12T04:49:02;100631.84;;;13.95;92.87
57894;BME280;43710;47.460;19.034;2023-05-12T04:52:05;100629.44;;;13.94;92.71
57894;BME280;43710;47.460;19.034;2023-05-12T04:55:08;100634.75;;;13.99;94.21
57894;BME280;43710;47.460;19.034;2023-05-12T04:58:11;100629.97;;;14.09;89.93
57894;BME280;43710;47.460;19.034;2023-05-12T05:01:17;100638.38;;;14.08;88.54
57894;BME280;43710;47.460;19.034;2023-05-12T05:04:19;100640.28;;;14.07;92.05
57894;BME280;43710;47.460;19.034;2023-05-12T05:07:22;100641.66;;;14.05;92.05
57894;BME280;43710;47.460;19.034;2023-05-12T05:10:24;100645.31;;;13.95;90.55
57894;BME280;43710;47.460;19.034;2023-05-12T05:13:26;100648.53;;;13.97;97.22
57894;BME280;43710;47.460;19.034;2023-05-12T05:16:29;100651.84;;;14.08;93.52
57894;BME280;43710;47.460;19.034;2023-05-12T05:19:31;100650.34;;;14.02;93.08
57894;BME280;43710;47.460;19.034;2023-05-12T05:22:53;100640.75;;;14.09;90.56
57894;BME280;43710;47.460;19.034;2023-05-12T05:25:55;100640.06;;;14.04;95.31
57894;BME280;43710;47.460;19.034;2023-05-12T05:28:58;100637.97;;;14.01;93.25
57894;BME280;43710;47.460;19.034;2023-05-12T05:32:00;100644.16;;;14.15;92.64
57894;BME280;43710;47.460;19.034;2023-05-12T05:35:03;100651.66;;;14.18;88.52
57894;BME280;43710;47.460;19.034;2023-05-12T05:38:06;100639.69;;;14.10;90.21
57894;BME280;43710;47.460;19.034;2023-05-12T05:41:08;100652.72;;;14.03;91.59
57894;BME280;43710;47.460;19.034;2023-05-12T05:44:10;100655.03;;;14.10;89.47
57894;BME280;43710;47.460;19.034;2023-05-12T05:47:13;100659.53;;;14.15;91.86
57894;BME280;43710;47.460;19.034;2023-05-12T05:50:16;100652.06;;;14.12;92.82
57894;BME280;43710;47.460;19.034;2023-05-12T05:53:19;100660.13;;;14.12;90.35
57894;BME280;43710;47.460;19.034;2023-05-12T05:56:21;100659.12;;;14.07;92.92
57894;BME280;43710;47.460;19.034;2023-05-12T05:59:24;100655.34;;;14.08;92.62
57894;BME280;43710;47.460;19.034;2023-05-12T06:02:27;100664.34;;;14.18;92.66
57894;BME280;43710;47.460;19.034;2023-05-12T06:05:29;100663.03;;;14.15;89.78
57894;BME280;43710;47.460;19.034;2023-05-12T06:08:32;100668.22;;;14.12;91.33
57894;BME280;43710;47.460;19.034;2023-05-12T06:11:34;100665.22;;;14.13;91.74
57894;BME280;43710;47.460;19.034;2023-05-12T06:14:36;100667.87;;;13.99;91.03
57894;BME280;43710;47.460;19.034;2023-05-12T06:17:39;100667.59;;;14.01;91.81
57894;BME280;43710;47.460;19.034;2023-05-12T06:20:43;100669.19;;;14.02;90.31
57894;BME280;43710;47.460;19.034;2023-05-12T06:23:45;100664.41;;;13.99;91.28
57894;BME280;43710;47.460;19.034;2023-05-12T06:26:47;100660.59;;;14.00;92.94
57894;BME280;43710;47.460;19.034;2023-05-12T06:29:50;100672.31;;;14.09;93.14
57894;BME280;43710;47.460;19.034;2023-05-12T06:32:53;100669.72;;;14.04;93.96
57894;BME280;43710;47.460;19.034;2023-05-12T06:35:55;100672.31;;;14.09;94.98
57894;BME280;43710;47.460;19.034;2023-05-12T06:38:59;100670.41;;;14.09;93.22
57894;BME280;43710;47.460;19.034;2023-05-12T06:42:01;100675.16;;;14.31;92.93
57894;BME280;43710;47.460;19.034;2023-05-12T06:45:10;100672.13;;;14.19;93.89
57894;BME280;43710;47.460;19.034;2023-05-12T06:48:14;100670.22;;;14.20;94.55
57894;BME280;43710;47.460;19.034;2023-05-12T06:51:16;100666.72;;;14.19;94.05
57894;BME280;43710;47.460;19.034;2023-05-12T06:54:19;100669.44;;;14.19;93.70
57894;BME280;43710;47.460;19.034;2023-05-12T06:57:21;100667.13;;;14.26;90.48
57894;BME280;43710;47.460;19.034;2023-05-12T07:00:24;100672.53;;;14.26;92.74
57894;BME280;43710;47.460;19.034;2023-05-12T07:03:30;100668.97;;;14.31;91.88
57894;BME280;43710;47.460;19.034;2023-05-12T07:06:33;100667.25;;;14.35;92.86
57894;BME280;43710;47.460;19.034;2023-05-12T07:09:35;100665.47;;;14.30;92.76
57894;BME280;43710;47.460;19.034;2023-05-12T07:12:38;100671.94;;;14.43;94.75
57894;BME280;43710;47.460;19.034;2023-05-12T07:15:40;100672.13;;;14.33;95.74
57894;BME280;43710;47.460;19.034;2023-05-12T07:18:43;100677.66;;;14.42;94.82
57894;BME280;43710;47.460;19.034;2023-05-12T07:21:46;100671.88;;;14.34;94.96
57894;BME280;43710;47.460;19.034;2023-05-12T07:24:49;100663.38;;;14.41;88.26
57894;BME280;43710;47.460;19.034;2023-05-12T07:27:51;100677.00;;;14.64;91.14
57894;BME280;43710;47.460;19.034;2023-05-12T07:30:54;100669.19;;;14.62;100.00
57894;BME280;43710;47.460;19.034;2023-05-12T07:33:56;100669.50;;;14.61;99.59
57894;BME280;43710;47.460;19.034;2023-05-12T07:36:59;100667.91;;;14.60;95.13
57894;BME280;43710;47.460;19.034;2023-05-12T07:40:03;100668.69;;;14.60;87.54
57894;BME280;43710;47.460;19.034;2023-05-12T07:43:06;100664.72;;;14.57;94.76
57894;BME280;43710;47.460;19.034;2023-05-12T07:46:09;100663.69;;;14.53;90.97
57894;BME280;43710;47.460;19.034;2023-05-12T07:49:12;100666.31;;;14.59;92.89
57894;BME280;43710;47.460;19.034;2023-05-12T07:52:15;100665.41;;;14.63;90.32
57894;BME280;43710;47.460;19.034;2023-05-12T07:55:18;100671.00;;;14.53;94.74
57894;BME280;43710;47.460;19.034;2023-05-12T07:58:21;100677.00;;;14.64;88.90
57894;BME280;43710;47.460;19.034;2023-05-12T08:01:24;100670.91;;;14.72;88.15
57894;BME280;43710;47.460;19.034;2023-05-12T08:04:27;100671.91;;;14.62;85.12
57894;BME280;43710;47.460;19.034;2023-05-12T08:07:29;100675.09;;;14.64;88.15
57894;BME280;43710;47.460;19.034;2023-05-12T08:10:32;100684.19;;;14.68;87.18
57894;BME280;43710;47.460;19.034;2023-05-12T08:13:38;100678.59;;;14.65;87.98
57894;BME280;43710;47.460;19.034;2023-05-12T08:16:40;100687.50;;;14.65;87.01
57894;BME280;43710;47.460;19.034;2023-05-12T08:19:46;100676.78;;;14.60;92.69
57894;BME280;43710;47.460;19.034;2023-05-12T08:22:48;100678.69;;;14.73;84.61
57894;BME280;43710;47.460;19.034;2023-05-12T08:25:51;100679.78;;;15.00;90.47
57894;BME280;43710;47.460;19.034;2023-05-12T08:28:54;100673.59;;;14.86;86.94
57894;BME280;43710;47.460;19.034;2023-05-12T08:31:56;100689.00;;;14.71;81.07
57894;BME280;43710;47.460;19.034;2023-05-12T08:35:00;100688.59;;;14.64;86.04
57894;BME280;43710;47.460;19.034;2023-05-12T08:38:02;100683.69;;;14.80;83.49
57894;BME280;43710;47.460;19.034;2023-05-12T08:41:13;100684.78;;;14.79;82.65
57894;BME280;43710;47.460;19.034;2023-05-12T08:44:18;100689.38;;;14.92;84.63
57894;BME280;43710;47.460;19.034;2023-05-12T08:47:20;100694.78;;;14.92;81.63
57894;BME280;43710;47.460;19.034;2023-05-12T08:50:24;100698.19;;;14.84;86.44
57894;BME280;43710;47.460;19.034;2023-05-12T08:53:28;100695.97;;;14.86;89.62
57894;BME280;43710;47.460;19.034;2023-05-12T08:56:30;100699.19;;;14.88;90.96
57894;BME280;43710;47.460;19.034;2023-05-12T08:59:37;100688.06;;;15.03;83.59
57894;BME280;43710;47.460;19.034;2023-05-12T09:02:41;100692.88;;;15.07;83.45
57894;BME280;43710;47.460;19.034;2023-05-12T09:05:59;100696.47;;;15.02;79.35
57894;BME280;43710;47.460;19.034;2023-05-12T09:09:01;100699.47;;;15.00;82.65
57894;BME280;43710;47.460;19.034;2023-05-12T09:12:06;100705.19;;;14.85;84.52
57894;BME280;43710;47.460;19.034;2023-05-12T09:15:17;100703.00;;;14.87;84.24
57894;BME280;43710;47.460;19.034;2023-05-12T09:18:21;100714.28;;;14.89;91.79
57894;BME280;43710;47.460;19.034;2023-05-12T09:21:24;100720.47;;;14.76;88.93
57894;BME280;43710;47.460;19.034;2023-05-12T09:24:37;100720.06;;;14.83;90.43
57894;BME280;43710;47.460;19.034;2023-05-12T09:27:40;100721.69;;;14.84;93.36
57894;BME280;43710;47.460;19.034;2023-05-12T09:30:42;100723.47;;;14.88;87.71
57894;BME280;43710;47.460;19.034;2023-05-12T09:33:44;100721.56;;;15.02;86.81
57894;BME280;43710;47.460;19.034;2023-05-12T09:37:02;100736.88;;;15.07;97.11
57894;BME280;43710;47.460;19.034;2023-05-12T09:40:06;100748.56;;;14.89;84.35
57894;BME280;43710;47.460;19.034;2023-05-12T09:43:09;100748.25;;;14.76;91.22
57894;BME280;43710;47.460;19.034;2023-05-12T09:46:15;100745.72;;;14.52;90.28
57894;BME280;43710;47.460;19.034;2023-05-12T09:49:22;100746.06;;;14.65;87.83
57894;BME280;43710;47.460;19.034;2023-05-12T09:52:29;100749.53;;;14.51;89.03
57894;BME280;43710;47.460;19.034;2023-05-12T09:55:34;100747.09;;;14.50;93.80
57894;BME280;43710;47.460;19.034;2023-05-12T09:58:41;100753.59;;;14.49;87.25
57894;BME280;43710;47.460;19.034;2023-05-12T10:01:44;100750.94;;;14.30;90.30
57894;BME280;43710;47.460;19.034;2023-05-12T10:04:55;100735.25;;;14.18;89.47
57894;BME280;43710;47.460;19.034;2023-05-12T10:07:59;100746.25;;;14.22;96.77
57894;BME280;43710;47.460;19.034;2023-05-12T10:11:04;100752.47;;;14.36;95.29
57894;BME280;43710;47.460;19.034;2023-05-12T10:14:07;100746.28;;;14.36;94.96
57894;BME280;43710;47.460;19.034;2023-05-12T10:17:11;100740.16;;;14.30;94.13
57894;BME280;43710;47.460;19.034;2023-05-12T10:20:17;100743.44;;;14.27;97.09
57894;BME280;43710;47.460;19.034;2023-05-12T10:23:20;100748.56;;;14.28;95.60
57894;BME280;43710;47.460;19.034;2023-05-12T10:26:23;100739.66;;;14.28;94.71
57894;BME280;43710;47.460;19.034;2023-05-12T10:29:26;100737.56;;;14.25;94.96
57894;BME280;43710;47.460;19.034;2023-05-12T10:32:32;100736.97;;;14.28;94.70
57894;BME280;43710;47.460;19.034;2023-05-12T10:35:35;100739.31;;;14.16;94.10
57894;BME280;43710;47.460;19.034;2023-05-12T10:38:38;100740.59;;;14.04;93.57
57894;BME280;43710;47.460;19.034;2023-05-12T10:41:42;100746.56;;;14.01;94.84
57894;BME280;43710;47.460;19.034;2023-05-12T10:44:52;100747.44;;;13.97;94.56
57894;BME280;43710;47.460;19.034;2023-05-12T10:48:05;100739.34;;;13.97;95.24
57894;BME280;43710;47.460;19.034;2023-05-12T10:51:09;100747.50;;;14.10;94.82
57894;BME280;43710;47.460;19.034;2023-05-12T10:54:19;100748.72;;;14.18;94.37
57894;BME280;43710;47.460;19.034;2023-05-12T10:57:22;100755.75;;;14.33;94.96
57894;BME280;43710;47.460;19.034;2023-05-12T11:00:27;100746.28;;;14.36;90.80
57894;BME280;43710;47.460;19.034;2023-05-12T11:03:30;100759.28;;;14.47;94.98
57894;BME280;43710;47.460;19.034;2023-05-12T11:06:38;100756.16;;;14.40;93.91
57894;BME280;43710;47.460;19.034;2023-05-12T11:09:43;100752.94;;;14.24;92.42
57894;BME280;43710;47.460;19.034;2023-05-12T11:13:01;100748.44;;;14.33;91.73
57894;BME280;43710;47.460;19.034;2023-05-12T11:16:03;100746.84;;;14.32;94.07
57894;BME280;43710;47.460;19.034;2023-05-12T11:19:06;100744.66;;;14.21;91.01
57894;BME280;43710;47.460;19.034;2023-05-12T11:22:09;100747.38;;;14.34;97.80
57894;BME280;43710;47.460;19.034;2023-05-12T11:25:13;100745.81;;;14.15;91.94
57894;BME280;43710;47.460;19.034;2023-05-12T11:28:15;100753.81;;;14.20;96.87
57894;BME280;43710;47.460;19.034;2023-05-12T11:31:18;100745.84;;;14.28;95.59
57894;BME280;43710;47.460;19.034;2023-05-12T11:34:22;100749.16;;;14.39;93.99
57894;BME280;43710;47.460;19.034;2023-05-12T11:37:25;100749.44;;;14.24;89.25
57894;BME280;43710;47.460;19.034;2023-05-12T11:40:27;100745.28;;;14.31;92.29
57894;BME280;43710;47.460;19.034;2023-05-12T11:43:30;100744.09;;;14.38;93.45
57894;BME280;43710;47.460;19.034;2023-05-12T11:46:32;100747.62;;;14.19;94.47
57894;BME280;43710;47.460;19.034;2023-05-12T11:49:45;100744.06;;;14.24;97.04
57894;BME280;43710;47.460;19.034;2023-05-12T11:52:47;100743.16;;;14.28;96.72
57894;BME280;43710;47.460;19.034;2023-05-12T11:55:51;100752.28;;;14.46;100.00
57894;BME280;43710;47.460;19.034;2023-05-12T11:58:55;100744.16;;;14.32;91.98
57894;BME280;43710;47.460;19.034;2023-05-12T12:02:00;100743.28;;;14.37;93.37
57894;BME280;43710;47.460;19.034;2023-05-12T12:05:03;100748.25;;;14.30;95.73
57894;BME280;43710;47.460;19.034;2023-05-12T12:08:14;100751.59;;;14.41;93.81
57894;BME280;43710;47.460;19.034;2023-05-12T12:11:18;100747.78;;;14.42;93.75
57894;BME280;43710;47.460;19.034;2023-05-12T12:14:20;100753.06;;;14.33;92.06
57894;BME280;43710;47.460;19.034;2023-05-12T12:17:23;100752.63;;;14.26;89.54
57894;BME280;43710;47.460;19.034;2023-05-12T12:20:31;100754.75;;;14.29;92.32
57894;BME280;43710;47.460;19.034;2023-05-12T12:23:34;100754.97;;;14.14;90.92
57894;BME280;43710;47.460;19.034;2023-05-12T12:26:51;100756.94;;;14.27;92.37
57894;BME280;43710;47.460;19.034;2023-05-12T12:29:53;100753.22;;;14.23;91.16
57894;BME280;43710;47.460;19.034;2023-05-12T12:32:56;100763.91;;;14.14;93.83
57894;BME280;43710;47.460;19.034;2023-05-12T12:35:58;100762.22;;;14.18;91.54
57894;BME280;43710;47.460;19.034;2023-05-12T12:39:01;100760.38;;;14.14;91.41
57894;BME280;43710;47.460;19.034;2023-05-12T12:42:04;100763.03;;;14.32;95.83
57894;BME280;43710;47.460;19.034;2023-05-12T12:45:07;100771.53;;;14.40;91.86
57894;BME280;43710;47.460;19.034;2023-05-12T12:48:10;100772.34;;;14.40;93.46
57894;BME280;43710;47.460;19.034;2023-05-12T12:51:12;100767.94;;;14.30;93.41
57894;BME280;43710;47.460;19.034;2023-05-12T12:54:15;100768.97;;;14.16;95.39
57894;BME280;43710;47.460;19.034;2023-05-12T12:57:17;100773.66;;;14.43;100.00
57894;BME280;43710;47.460;19.034;2023-05-12T13:00:20;100768.63;;;14.36;94.00
57894;BME280;43710;47.460;19.034;2023-05-12T13:03:24;100772.13;;;14.37;100.00
57894;BME280;43710;47.460;19.034;2023-05-12T13:06:27;100766.25;;;14.34;94.94
57894;BME280;43710;47.460;19.034;2023-05-12T13:09:30;100768.31;;;14.24;100.00
57894;BME280;43710;47.460;19.034;2023-05-12T13:12:33;100770.91;;;14.29;100.00
57894;BME280;43710;47.460;19.034;2023-05-12T13:15:35;100765.31;;;14.25;100.00
57894;BME280;43710;47.460;19.034;2023-05-12T13:18:38;100766.31;;;14.29;97.12
57894;BME280;43710;47.460;19.034;2023-05-12T13:21:40;100773.56;;;14.34;98.46
57894;BME280;43710;47.460;19.034;2023-05-12T13:24:43;100763.31;;;14.17;96.09
57894;BME280;43710;47.460;19.034;2023-05-12T13:27:45;100769.56;;;14.13;95.83
57894;BME280;43710;47.460;19.034;2023-05-12T13:30:47;100767.75;;;14.08;96.44
57894;BME280;43710;47.460;19.034;2023-05-12T13:33:50;100774.09;;;14.17;100.00
57894;BME280;43710;47.460;19.034;2023-05-12T13:36:53;100771.03;;;14.05;97.62
57894;BME280;43710;47.460;19.034;2023-05-12T13:39:55;100769.34;;;14.09;96.28
57894;BME280;43710;47.460;19.034;2023-05-12T13:42:57;100768.41;;;14.00;98.64
57894;BME280;43710;47.460;19.034;2023-05-12T13:45:59;100772.56;;;14.11;100.00
57894;BME280;43710;47.460;19.034;2023-05-12T13:49:02;100772.84;;;14.09;95.16
57894;BME280;43710;47.460;19.034;2023-05-12T13:52:05;100773.16;;;14.08;95.50
57894;BME280;43710;47.460;19.034;2023-05-12T13:55:08;100762.28;;;14.13;98.34
57894;BME280;43710;47.460;19.034;2023-05-12T13:58:10;100774.72;;;14.28;100.00
57894;BME280;43710;47.460;19.034;2023-05-12T14:01:13;100767.88;;;14.17;96.38
57894;BME280;43710;47.460;19.034;2023-05-12T14:04:16;100771.25;;;14.08;95.20
57894;BME280;43710;47.460;19.034;2023-05-12T14:07:19;100773.38;;;14.12;94.54
57894;BME280;43710;47.460;19.034;2023-05-12T14:10:21;100772.22;;;13.99;92.66
57894;BME280;43710;47.460;19.034;2023-05-12T14:13:23;100791.72;;;14.09;99.08
57894;BME280;43710;47.460;19.034;2023-05-12T14:16:27;100781.16;;;14.13;95.01
57894;BME280;43710;47.460;19.034;2023-05-12T14:19:29;100785.69;;;14.18;100.00
57894;BME280;43710;47.460;19.034;2023-05-12T14:22:32;100783.44;;;14.06;96.37
57894;BME280;43710;47.460;19.034;2023-05-12T14:25:34;100783.50;;;14.01;100.00
57894;BME280;43710;47.460;19.034;2023-05-12T14:28:36;100789.28;;;13.94;99.30
57894;BME280;43710;47.460;19.034;2023-05-12T14:31:39;100792.97;;;13.98;96.61
57894;BME280;43710;47.460;19.034;2023-05-12T14:34:42;100798.97;;;13.95;98.67
57894;BME280;43710;47.460;19.034;2023-05-12T14:37:44;100801.19;;;14.07;100.00
57894;BME280;43710;47.460;19.034;2023-05-12T14:40:47;100816.00;;;14.09;100.00
57894;BME280;43710;47.460;19.034;2023-05-12T14:43:50;100812.22;;;14.10;100.00
57894;BME280;43710;47.460;19.034;2023-05-12T14:46:52;100817.16;;;14.03;98.01
57894;BME280;43710;47.460;19.034;2023-05-12T14:49:54;100819.84;;;14.03;95.60
57894;BME280;43710;47.460;19.034;2023-05-12T14:52:57;100822.38;;;14.14;93.79
57894;BME280;43710;47.460;19.034;2023-05-12T14:55:59;100821.16;;;14.06;94.46
57894;BME280;43710;47.460;19.034;2023-05-12T14:59:01;100824.06;;;13.91;98.52
57894;BME280;43710;47.460;19.034;2023-05-12T15:02:05;100827.13;;;13.84;98.97
57894;BME280;43710;47.460;19.034;2023-05-12T15:05:08;100825.38;;;13.93;96.60
57894;BME280;43710;47.460;19.034;2023-05-12T15:08:10;100827.28;;;14.12;95.40
57894;BME280;43710;47.460;19.034;2023-05-12T15:11:14;100825.25;;;14.03;100.00
57894;BME280;43710;47.460;19.034;2023-05-12T15:14:16;100830.56;;;14.08;100.00
57894;BME280;43710;47.460;19.034;2023-05-12T15:17:19;100827.88;;;14.08;97.56
